Time;durP1;ratioP1;P1;durP2;ratioP2;P2;SDS_P1;SDS_P2;PMS_P1;PMS_P2;Temp;Humidity;BMP_temperature;BMP_pressure;BME280_temperature;BME280_humidity;BME280_pressure;Samples;Min_cycle;Max_cycle;Signal;HPM_P1;HPM_P2
2021/08/21 00:00:18;;;;;;;7.55;4.88;;;;;;;15.27;100.00;100391.66;5017189;28;20050;-69
2021/08/21 00:02:45;;;;;;;6.75;4.38;;;;;;;15.25;100.00;100386.38;5017235;28;20041;-70
2021/08/21 00:05:12;;;;;;;9.00;5.10;;;;;;;15.21;100.00;100390.31;5016337;28;20085;-69
2021/08/21 00:07:39;;;;;;;13.38;6.50;;;;;;;15.20;100.00;100388.59;5015992;28;20066;-69
2021/08/21 00:10:11;;;;;;;9.63;5.18;;;;;;;15.21;100.00;100390.31;5016117;28;20096;-69
2021/08/21 00:12:39;;;;;;;9.10;4.55;;;;;;;15.16;100.00;100381.72;5017132;28;20049;-69
2021/08/21 00:15:09;;;;;;;8.70;4.57;;;;;;;15.24;100.00;100394.59;5032356;28;20049;-69
2021/08/21 00:17:37;;;;;;;;;;;;;;;15.20;100.00;100380.53;5016296;28;20413;-69
2021/08/21 00:20:09;;;;;;;8.60;4.50;;;;;;;15.17;100.00;100388.81;5032129;28;19958;-70
2021/08/21 00:22:36;;;;;;;6.28;4.78;;;;;;;15.14;100.00;100383.69;5012473;28;20121;-69
2021/08/21 00:25:03;;;;;;;8.75;4.78;;;;;;;15.11;100.00;100375.84;4997306;28;20101;-69
2021/08/21 00:27:30;;;;;;;6.55;4.43;;;;;;;15.12;100.00;100374.88;4997172;28;20074;-67
2021/08/21 00:29:57;;;;;;;15.18;5.32;;;;;;;15.10;100.00;100372.31;4997025;28;20081;-68
2021/08/21 00:32:24;;;;;;;12.07;5.10;;;;;;;15.05;100.00;100372.66;4997031;28;20097;-69
2021/08/21 00:34:51;;;;;;;8.57;4.65;;;;;;;14.99;100.00;100381.19;4996005;28;20042;-69
2021/08/21 00:37:18;;;;;;;11.88;4.50;;;;;;;15.04;100.00;100378.16;5012287;28;20060;-69
2021/08/21 00:39:45;;;;;;;6.13;4.15;;;;;;;14.96;100.00;100365.31;5016413;28;20054;-69
2021/08/21 00:42:12;;;;;;;7.75;4.60;;;;;;;15.02;100.00;100375.59;4999067;28;20058;-69
2021/08/21 00:44:39;;;;;;;6.03;4.60;;;;;;;14.86;100.00;100357.09;5015072;28;20038;-68
2021/08/21 00:47:18;;;;;;;5.03;4.15;;;;;;;14.90;100.00;100371.16;5015310;28;20054;-69
2021/08/21 00:49:47;;;;;;;6.15;4.10;;;;;;;14.92;100.00;100375.44;5015112;28;20055;-69
2021/08/21 00:52:18;;;;;;;7.53;4.45;;;;;;;14.87;100.00;100377.59;5016330;28;20092;-69
2021/08/21 00:54:46;;;;;;;8.32;4.20;;;;;;;14.88;100.00;100373.09;5015107;28;20053;-68
2021/08/21 00:57:14;;;;;;;6.97;3.92;;;;;;;14.86;100.00;100367.00;5015210;28;20053;-68
2021/08/21 00:59:43;;;;;;;6.72;3.92;;;;;;;14.83;100.00;100375.28;5014813;28;20065;-68
2021/08/21 01:02:11;;;;;;;5.82;4.13;;;;;;;14.79;100.00;100372.81;5015143;28;20069;-68
2021/08/21 01:04:41;;;;;;;7.28;4.20;;;;;;;14.78;100.00;100365.72;5015950;28;20049;-68
2021/08/21 01:07:11;;;;;;;6.72;4.32;;;;;;;14.83;100.00;100378.81;5014372;28;20395;-68
2021/08/21 01:09:39;;;;;;;6.80;3.90;;;;;;;14.84;100.00;100366.22;5014847;28;20074;-68
2021/08/21 01:12:10;;;;;;;11.00;4.25;;;;;;;14.82;100.00;100368.19;4982625;28;20056;-69
2021/08/21 01:14:37;;;;;;;5.63;3.60;;;;;;;14.83;100.00;100369.91;4999121;28;20070;-69
2021/08/21 01:17:05;;;;;;;6.80;4.13;;;;;;;14.84;100.00;100369.78;5014646;28;20053;-68
2021/08/21 01:19:41;;;;;;;5.32;3.80;;;;;;;14.81;100.00;100378.06;5031166;28;20045;-68
2021/08/21 01:22:12;;;;;;;6.25;3.90;;;;;;;14.80;100.00;100366.47;5011350;28;20440;-68
2021/08/21 01:24:40;;;;;;;7.70;4.05;;;;;;;14.76;100.00;100359.59;5028011;28;20058;-68
2021/08/21 01:27:06;;;;;;;7.07;3.97;;;;;;;14.72;100.00;100354.56;4979166;28;20125;-68
2021/08/21 01:29:44;;;;;;;7.20;3.92;;;;;;;14.68;100.00;100348.56;4995204;28;20057;-68
2021/08/21 01:32:31;;;;;;;5.25;3.70;;;;;;;14.73;100.00;100361.63;4994940;28;20527;-68
2021/08/21 01:34:59;;;;;;;7.85;3.65;;;;;;;14.73;100.00;100354.44;5027583;28;20046;-69
2021/08/21 01:37:27;;;;;;;10.05;3.47;;;;;;;14.71;100.00;100350.16;5014576;28;20115;-68
2021/08/21 01:40:23;;;;;;;12.27;3.90;;;;;;;14.66;100.00;100350.53;5014584;28;20625;-68
2021/08/21 01:42:50;;;;;;;9.45;3.95;;;;;;;14.66;100.00;100350.53;4998384;28;20139;-68
2021/08/21 01:45:17;;;;;;;6.68;4.32;;;;;;;14.65;100.00;100349.66;5014323;28;20050;-68
2021/08/21 01:47:46;;;;;;;7.25;3.53;;;;;;;14.62;100.00;100354.41;5014063;28;20077;-68
2021/08/21 01:50:18;;;;;;;8.60;3.72;;;;;;;14.66;100.00;100350.53;5013976;28;20046;-68
2021/08/21 01:52:48;;;;;;;7.30;3.60;;;;;;;14.55;100.00;100340.59;5012686;28;20057;-68
2021/08/21 01:55:29;;;;;;;6.93;3.22;;;;;;;14.58;100.00;100345.72;5010283;28;20053;-68
2021/08/21 01:57:58;;;;;;;7.60;3.78;;;;;;;14.58;100.00;100343.03;5027432;28;20069;-69
2021/08/21 02:00:37;;;;;;;9.25;3.80;;;;;;;14.54;100.00;100333.47;5014316;28;20057;-69
2021/08/21 02:03:05;;;;;;;7.20;3.40;;;;;;;14.60;100.00;100343.75;5014340;28;20088;-69
2021/08/21 02:05:37;;;;;;;10.82;3.63;;;;;;;14.54;100.00;100341.53;5015051;28;20046;-69
2021/08/21 02:08:06;;;;;;;7.90;3.25;;;;;;;14.51;100.00;100345.28;5013969;28;20112;-69
2021/08/21 02:10:33;;;;;;;6.15;3.40;;;;;;;14.55;100.00;100345.09;5014200;28;20447;-69
2021/08/21 02:13:00;;;;;;;5.55;3.45;;;;;;;14.55;100.00;100339.72;5015427;28;20066;-68
2021/08/21 02:15:28;;;;;;;5.60;3.53;;;;;;;14.55;100.00;100345.09;5014173;28;20038;-68
2021/08/21 02:17:58;;;;;;;5.13;3.08;;;;;;;14.52;100.00;100343.47;5015568;28;20053;-68
2021/08/21 02:20:48;;;;;;;6.45;3.75;;;;;;;14.50;100.00;100340.91;5020190;28;20062;-68
2021/08/21 02:23:20;;;;;;;7.78;3.58;;;;;;;14.43;100.00;100330.75;4998301;28;20347;-67
2021/08/21 02:25:55;;;;;;;8.18;3.38;;;;;;;14.45;100.00;100335.03;4998421;28;20093;-68
2021/08/21 02:28:27;;;;;;;5.87;3.13;;;;;;;14.44;100.00;100338.66;4998520;28;20050;-68
2021/08/21 02:30:54;;;;;;;5.60;3.22;;;;;;;14.43;100.00;100339.66;4998282;28;20355;-67
2021/08/21 02:33:21;;;;;;;5.75;3.33;;;;;;;14.40;100.00;100345.25;4998016;28;20073;-68
2021/08/21 02:35:50;;;;;;;5.57;3.20;;;;;;;14.42;100.00;100340.63;5002532;28;20416;-68
2021/08/21 02:38:17;;;;;;;4.43;3.50;;;;;;;14.40;100.00;100342.56;5017596;28;20133;-68
2021/08/21 02:40:44;;;;;;;4.68;3.45;;;;;;;14.33;100.00;100335.94;5017509;28;20092;-68
2021/08/21 02:43:12;;;;;;;6.15;3.55;;;;;;;14.37;100.00;100342.78;5017463;28;20046;-68
2021/08/21 02:45:39;;;;;;;4.72;3.30;;;;;;;14.28;100.00;100333.63;5017541;28;20423;-68
2021/08/21 02:48:07;;;;;;;7.28;3.67;;;;;;;14.28;100.00;100335.44;5017508;28;20105;-68
2021/08/21 02:50:34;;;;;;;9.57;3.03;;;;;;;14.27;100.00;100339.94;5033768;28;20050;-68
2021/08/21 02:53:00;;;;;;;6.80;3.35;;;;;;;14.31;100.00;100344.13;5018360;28;20049;-68
2021/08/21 02:55:27;;;;;;;10.55;3.40;;;;;;;14.25;100.00;100337.38;5018338;28;20042;-68
2021/08/21 02:57:54;;;;;;;5.90;3.30;;;;;;;14.30;100.00;100337.03;5017200;28;20065;-68
2021/08/21 03:00:32;;;;;;;6.88;3.90;;;;;;;14.28;100.00;100346.16;5017227;28;20451;-68
2021/08/21 03:03:04;;;;;;;9.30;3.67;;;;;;;14.23;100.00;100338.47;5017488;28;20046;-68
2021/08/21 03:05:31;;;;;;;8.40;3.45;;;;;;;14.20;100.00;100346.72;5000854;28;20042;-68
2021/08/21 03:08:00;;;;;;;6.50;3.60;;;;;;;14.21;100.00;100343.94;5016903;28;20058;-68
2021/08/21 03:10:27;;;;;;;4.95;3.30;;;;;;;14.20;100.00;100352.09;5016821;28;20050;-68
2021/08/21 03:13:00;;;;;;;7.03;3.83;;;;;;;14.16;100.00;100329.97;5016922;28;20049;-68
2021/08/21 03:15:29;;;;;;;4.33;3.00;;;;;;;14.23;100.00;100347.34;5016871;28;20050;-67
2021/08/21 03:17:58;;;;;;;6.32;3.08;;;;;;;14.22;100.00;100337.59;5016764;28;20053;-68
2021/08/21 03:20:26;;;;;;;10.65;3.35;;;;;;;14.32;100.00;100344.97;5016786;28;20046;-68
2021/08/21 03:22:53;;;;;;;9.88;3.70;;;;;;;14.30;100.00;100347.78;5013341;28;20057;-68
2021/08/21 03:25:24;;;;;;;6.68;3.78;;;;;;;14.31;100.00;100343.25;4997234;28;20039;-68
2021/08/21 03:27:52;;;;;;;3.90;3.22;;;;;;;14.31;100.00;100344.13;4998257;28;20081;-68
2021/08/21 03:30:21;;;;;;;7.93;2.78;;;;;;;14.30;100.00;100346.91;4997053;28;20046;-68
2021/08/21 03:32:56;;;;;;;6.00;3.20;;;;;;;14.36;100.00;100343.75;4997244;28;20462;-68
2021/08/21 03:35:23;;;;;;;6.78;3.45;;;;;;;14.36;100.00;100347.31;4981099;28;20057;-67
2021/08/21 03:37:50;;;;;;;4.70;3.50;;;;;;;14.29;100.00;100342.50;5000333;28;20051;-68
2021/08/21 03:40:17;;;;;;;4.20;3.50;;;;;;;14.35;100.00;100350.09;5016479;28;20431;-67
2021/08/21 03:42:57;;;;;;;7.63;3.25;;;;;;;14.29;100.00;100339.81;5016371;28;20525;-67
2021/08/21 03:45:24;;;;;;;7.70;3.13;;;;;;;14.35;100.00;100339.38;5017682;28;20064;-68
2021/08/21 03:47:52;;;;;;;7.88;3.60;;;;;;;14.22;100.00;100329.53;5000281;28;20042;-68
2021/08/21 03:50:20;;;;;;;6.05;3.20;;;;;;;14.25;100.00;100334.69;5000466;28;20046;-68
2021/08/21 03:52:47;;;;;;;5.18;3.60;;;;;;;14.26;100.00;100330.16;4999985;28;20053;-67
2021/08/21 03:55:15;;;;;;;6.85;3.67;;;;;;;14.22;100.00;100324.16;5016029;28;20378;-67
2021/08/21 03:57:43;;;;;;;14.63;3.95;;;;;;;14.18;100.00;100328.06;5015953;28;20061;-69
2021/08/21 04:00:10;;;;;;;11.80;4.90;;;;;;;14.18;100.00;100325.38;5017130;28;20045;-67
2021/08/21 04:02:42;;;;;;;9.13;4.07;;;;;;;14.14;100.00;100326.56;5017080;28;20054;-68
2021/08/21 04:05:13;;;;;;;6.75;3.75;;;;;;;14.15;100.00;100322.91;5016029;28;20104;-68
2021/08/21 04:07:40;;;;;;;7.65;4.90;;;;;;;14.14;100.00;100326.56;5015783;28;20059;-68
2021/08/21 04:10:09;;;;;;;5.10;3.78;;;;;;;14.10;100.00;100327.75;5016378;28;20447;-69
2021/08/21 04:12:36;;;;;;;10.73;4.78;;;;;;;14.13;100.00;100314.97;5015977;28;20045;-68
2021/08/21 04:15:13;;;;;;;9.88;4.68;;;;;;;14.11;100.00;100321.44;5015695;28;20053;-68
2021/08/21 04:17:40;;;;;;;13.10;4.80;;;;;;;14.08;100.00;100325.19;5016775;28;20073;-68
2021/08/21 04:20:08;;;;;;;7.38;4.20;;;;;;;14.08;100.00;100321.66;5015579;28;20362;-68
2021/08/21 04:22:38;;;;;;;7.75;4.35;;;;;;;14.03;100.00;100318.44;5012439;28;20050;-68
2021/08/21 04:25:06;;;;;;;7.97;4.53;;;;;;;14.07;100.00;100317.25;4995935;28;20076;-68
2021/08/21 04:27:34;;;;;;;9.50;4.43;;;;;;;14.07;100.00;100317.25;4995944;28;20447;-68
2021/08/21 04:30:01;;;;;;;6.30;5.03;;;;;;;14.03;100.00;100323.81;4996115;28;20356;-68
2021/08/21 04:32:28;;;;;;;8.70;4.93;;;;;;;14.00;100.00;100322.19;4995952;28;20092;-68
2021/08/21 04:34:56;;;;;;;7.53;4.30;;;;;;;14.02;100.00;100319.41;4995659;28;20455;-68
2021/08/21 04:37:23;;;;;;;9.15;4.72;;;;;;;13.97;100.00;100320.63;4995774;28;20092;-68
2021/08/21 04:39:50;;;;;;;10.35;5.72;;;;;;;13.93;100.00;100313.75;5014734;28;20053;-68
2021/08/21 04:42:22;;;;;;;10.93;5.53;;;;;;;13.95;100.00;100316.34;5015297;28;20050;-68
2021/08/21 04:44:51;;;;;;;11.30;5.38;;;;;;;13.98;100.00;100313.41;5015173;28;20046;-68
2021/08/21 04:47:18;;;;;;;14.07;5.57;;;;;;;13.99;100.00;100317.81;5015323;28;20045;-68
2021/08/21 04:49:46;;;;;;;8.80;5.35;;;;;;;13.96;100.00;100321.56;5015207;28;20336;-68
2021/08/21 04:52:14;;;;;;;8.93;5.28;;;;;;;13.90;100.00;100313.97;5015068;28;20060;-68
2021/08/21 04:54:40;;;;;;;7.55;5.57;;;;;;;13.97;100.00;100319.75;5016036;28;20073;-68
2021/08/21 04:57:10;;;;;;;10.95;5.40;;;;;;;14.01;100.00;100323.94;5031440;28;20100;-68
2021/08/21 04:59:48;;;;;;;8.93;4.97;;;;;;;13.99;100.00;100334.78;5000332;28;20104;-68
2021/08/21 05:02:16;;;;;;;10.40;5.10;;;;;;;13.99;100.00;100323.16;5014890;28;20046;-68
2021/08/21 05:04:43;;;;;;;12.65;5.70;;;;;;;14.01;100.00;100331.97;5014881;28;20042;-69
2021/08/21 05:07:10;;;;;;;10.73;5.28;;;;;;;13.95;100.00;100327.91;5014751;28;20084;-69
2021/08/21 05:09:42;;;;;;;7.18;5.38;;;;;;;13.97;100.00;100336.72;5016131;28;20045;-69
2021/08/21 05:12:15;;;;;;;7.78;5.63;;;;;;;13.98;100.00;100340.25;4999568;28;20064;-67
2021/08/21 05:14:51;;;;;;;7.05;5.38;;;;;;;13.96;100.00;100336.81;5014706;28;20053;-67
2021/08/21 05:17:21;;;;;;;8.98;5.60;;;;;;;13.93;100.00;100345.94;5016161;28;20054;-67
2021/08/21 05:20:14;;;;;;;10.45;5.80;;;;;;;13.88;100.00;100337.38;5014585;28;20057;-67
2021/08/21 05:23:10;;;;;;;8.43;5.57;;;;;;;13.91;100.00;100341.66;5014626;28;20053;-67
2021/08/21 05:25:44;;;;;;;9.05;5.28;;;;;;;13.93;100.00;100351.31;5016040;28;20042;-67
2021/08/21 05:28:18;;;;;;;8.60;5.57;;;;;;;13.94;100.00;100347.66;5030620;28;20514;-67
2021/08/21 05:30:47;;;;;;;9.98;4.68;;;;;;;13.93;100.00;100340.59;5014447;28;20046;-67
2021/08/21 05:33:16;;;;;;;8.10;5.43;;;;;;;13.93;100.00;100343.25;5014557;28;20049;-67
2021/08/21 05:35:46;;;;;;;8.48;5.53;;;;;;;13.94;100.00;100341.47;5015571;28;20042;-67
2021/08/21 05:38:15;;;;;;;12.98;5.75;;;;;;;13.94;100.00;100342.28;5028149;28;20060;-68
2021/08/21 05:40:42;;;;;;;10.57;5.28;;;;;;;13.94;100.00;100330.72;5035156;28;20057;-67
2021/08/21 05:43:10;;;;;;;8.90;5.22;;;;;;;13.99;100.00;100324.03;5050841;28;20103;-68
2021/08/21 05:45:37;;;;;;;8.93;5.40;;;;;;;14.01;100.00;100334.66;5033815;28;20045;-67
2021/08/21 05:48:04;;;;;;;8.70;5.53;;;;;;;14.04;100.00;100330.88;5035176;28;20056;-67
2021/08/21 05:50:31;;;;;;;7.78;5.05;;;;;;;14.05;100.00;100333.47;5035095;28;20057;-67
2021/08/21 05:52:58;;;;;;;11.55;5.32;;;;;;;14.09;100.00;100331.41;5033829;28;20053;-67
2021/08/21 05:55:25;;;;;;;11.20;5.35;;;;;;;14.08;100.00;100324.31;5033821;28;20041;-68
2021/08/21 05:57:58;;;;;;;7.40;5.25;;;;;;;14.13;100.00;100338.28;5034149;28;20046;-68
2021/08/21 06:00:25;;;;;;;8.88;5.60;;;;;;;14.19;100.00;100335.16;5033976;28;20121;-67
2021/08/21 06:02:52;;;;;;;8.68;5.03;;;;;;;14.22;100.00;100337.59;5028585;28;20052;-67
2021/08/21 06:05:19;;;;;;;6.97;4.55;;;;;;;14.22;100.00;100332.22;5024220;28;20040;-67
2021/08/21 06:07:49;;;;;;;11.65;5.25;;;;;;;14.34;100.00;100348.41;5019657;28;20345;-66
2021/08/21 06:10:25;;;;;;;9.65;4.90;;;;;;;14.39;100.00;100347.06;5030749;28;20041;-67
2021/08/21 06:12:52;;;;;;;6.72;4.30;;;;;;;14.47;100.00;100348.34;5026614;28;20076;-68
2021/08/21 06:15:19;;;;;;;8.35;5.00;;;;;;;14.47;100.00;100343.84;5003508;28;20049;-69
2021/08/21 06:17:46;;;;;;;6.78;4.57;;;;;;;14.56;100.00;100344.09;5006776;28;20034;-69
2021/08/21 06:20:14;;;;;;;7.15;4.70;;;;;;;14.63;100.00;100343.53;5012067;28;20473;-70
2021/08/21 06:22:41;;;;;;;8.75;4.45;;;;;;;14.69;100.00;100344.91;5001797;28;20050;-69
2021/08/21 06:25:09;;;;;;;7.55;4.65;;;;;;;14.79;100.00;100350.47;4998138;28;20427;-69
2021/08/21 06:27:37;;;;;;;7.53;4.78;;;;;;;14.87;100.00;100350.72;5005818;28;20092;-69
2021/08/21 06:30:06;;;;;;;7.88;4.57;;;;;;;14.98;100.00;100349.06;4997638;28;20423;-74
2021/08/21 06:32:33;;;;;;;4.75;4.13;;;;;;;15.03;100.00;100347.72;4997713;28;20045;-70
2021/08/21 06:35:00;;;;;;;8.05;4.40;;;;;;;15.09;100.00;100349.06;4997151;28;20110;-68
2021/08/21 06:37:26;;;;;;;9.15;3.95;;;;;;;15.16;100.00;100350.31;5015680;28;20050;-69
2021/08/21 06:39:53;;;;;;;6.72;4.38;;;;;;;15.21;100.00;100341.91;5003729;28;20391;-69
2021/08/21 06:42:20;;;;;;;7.38;4.28;;;;;;;15.25;100.00;100337.16;5001348;28;20054;-70
2021/08/21 06:45:16;;;;;;;9.05;4.07;;;;;;;15.32;100.00;100336.53;4991181;28;20085;-69
2021/08/21 06:47:43;;;;;;;5.55;3.58;;;;;;;15.38;100.00;100327.16;4999309;28;20112;-70
2021/08/21 06:50:10;;;;;;;10.38;4.32;;;;;;;15.51;100.00;100326.19;5003003;28;20304;-72
2021/08/21 06:52:37;;;;;;;8.10;3.75;;;;;;;15.61;100.00;100335.22;5002726;28;20038;-70
2021/08/21 06:55:05;;;;;;;8.85;3.78;;;;;;;15.70;100.00;100330.94;5012027;28;20104;-69
2021/08/21 06:57:31;;;;;;;5.15;3.63;;;;;;;15.78;100.00;100322.22;5014186;28;20053;-68
2021/08/21 06:59:58;;;;;;;5.40;3.47;;;;;;;15.85;100.00;100328.84;5008612;28;20053;-68
2021/08/21 07:02:25;;;;;;;6.65;3.30;;;;;;;15.87;100.00;100321.50;4999937;28;20092;-68
2021/08/21 07:04:53;;;;;;;6.53;3.38;;;;;;;16.01;100.00;100329.34;5013413;28;20069;-67
2021/08/21 07:07:20;;;;;;;9.07;3.47;;;;;;;16.12;100.00;100325.78;5017492;28;20560;-70
2021/08/21 07:09:49;;;;;;;5.22;3.25;;;;;;;16.23;100.00;100324.03;5017569;28;20128;-66
2021/08/21 07:12:16;;;;;;;4.63;2.72;;;;;;;16.37;100.00;100329.16;5007832;28;20112;-69
2021/08/21 07:14:43;;;;;;;7.38;2.42;;;;;;;16.35;100.00;100323.00;5001716;28;20066;-76
2021/08/21 07:17:11;;;;;;;5.30;2.53;;;;;;;16.39;100.00;100315.53;5004349;28;20034;-77
2021/08/21 07:19:37;;;;;;;4.18;1.90;;;;;;;16.63;100.00;100331.50;5006209;28;20035;-68
2021/08/21 07:22:04;;;;;;;3.25;1.70;;;;;;;16.67;100.00;100335.63;5011787;28;20066;-70
2021/08/21 07:24:31;;;;;;;2.83;1.90;;;;;;;16.80;99.52;100343.56;5013402;28;20037;-71
2021/08/21 07:26:58;;;;;;;3.33;1.70;;;;;;;16.84;99.76;100342.28;5008985;28;20092;-70
2021/08/21 07:29:25;;;;;;;2.70;1.83;;;;;;;16.92;98.69;100347.03;5019325;28;20454;-72
2021/08/21 07:31:51;;;;;;;2.35;1.92;;;;;;;17.04;98.19;100344.28;5011130;28;20115;-72
2021/08/21 07:34:18;;;;;;;3.35;1.80;;;;;;;17.22;96.82;100345.41;5015175;28;20080;-76
2021/08/21 07:36:45;;;;;;;3.92;2.05;;;;;;;17.31;95.69;100351.00;4982652;28;20050;-70
2021/08/21 07:39:12;;;;;;;2.42;1.60;;;;;;;17.42;93.72;100347.38;5015955;28;20370;-70
2021/08/21 07:41:39;;;;;;;3.58;1.63;;;;;;;17.44;94.55;100346.25;5016990;28;20038;-73
2021/08/21 07:44:05;;;;;;;4.68;1.65;;;;;;;17.48;94.00;100350.38;5007058;28;20091;-71
2021/08/21 07:46:35;;;;;;;2.78;1.90;;;;;;;17.53;93.54;100351.84;5012118;28;20034;-72
2021/08/21 07:49:02;;;;;;;2.30;1.52;;;;;;;17.52;94.36;100350.97;5011875;28;20042;-72
2021/08/21 07:51:29;;;;;;;1.92;1.50;;;;;;;17.54;94.87;100348.16;5006364;28;20056;-72
2021/08/21 07:53:56;;;;;;;2.90;2.33;;;;;;;17.63;91.50;100352.72;5014183;28;20477;-72
2021/08/21 07:56:22;;;;;;;2.03;1.58;;;;;;;17.65;91.65;100353.44;5003689;28;20363;-71
2021/08/21 07:58:49;;;;;;;1.95;1.40;;;;;;;17.78;90.55;100345.97;4999991;28;20042;-71
2021/08/21 08:01:16;;;;;;;3.47;1.40;;;;;;;17.79;89.44;100346.84;5020995;28;20034;-70
2021/08/21 08:03:43;;;;;;;2.10;1.50;;;;;;;17.77;88.78;100338.03;5005874;28;20054;-70
2021/08/21 08:06:09;;;;;;;2.88;1.73;;;;;;;17.85;88.17;100340.03;5011725;28;20042;-67
2021/08/21 08:08:36;;;;;;;3.00;1.63;;;;;;;17.90;88.84;100348.56;5004251;28;20058;-69
2021/08/21 08:11:03;;;;;;;1.50;1.30;;;;;;;17.96;90.11;100342.63;5004346;28;20061;-69
2021/08/21 08:13:30;;;;;;;1.70;1.60;;;;;;;18.04;89.15;100347.34;5018541;28;20367;-69
2021/08/21 08:15:57;;;;;;;2.83;1.67;;;;;;;18.07;88.86;100346.25;4999442;28;20129;-69
2021/08/21 08:18:24;;;;;;;3.78;1.42;;;;;;;18.03;86.52;100335.69;5000965;28;20050;-69
2021/08/21 08:20:50;;;;;;;2.15;1.35;;;;;;;18.17;87.09;100347.13;5004570;28;20388;-71
2021/08/21 08:23:17;;;;;;;4.95;2.10;;;;;;;18.24;87.53;100344.72;5012969;28;20042;-76
2021/08/21 08:25:44;;;;;;;3.90;2.00;;;;;;;18.32;85.89;100339.47;4995653;28;20108;-74
2021/08/21 08:28:11;;;;;;;1.35;1.23;;;;;;;18.45;84.70;100336.50;5007094;28;20096;-75
2021/08/21 08:30:38;;;;;;;4.15;1.70;;;;;;;18.54;82.86;100337.50;5029604;28;20053;-76
2021/08/21 08:33:05;;;;;;;3.03;1.48;;;;;;;18.54;81.87;100330.25;5017573;28;20050;-73
2021/08/21 08:35:32;;;;;;;4.45;1.40;;;;;;;18.63;81.33;100325.81;5011540;28;20081;-74
2021/08/21 08:37:59;;;;;;;2.03;1.30;;;;;;;18.87;80.35;100336.19;5001185;28;20444;-71
2021/08/21 08:40:27;;;;;;;3.42;1.40;;;;;;;18.92;79.37;100337.63;5001754;28;20090;-74
2021/08/21 08:42:56;;;;;;;1.83;1.48;;;;;;;19.04;78.78;100341.06;5013060;28;20045;-69
2021/08/21 08:45:23;;;;;;;3.15;1.35;;;;;;;19.00;79.36;100329.63;5012577;28;20046;-71
2021/08/21 08:47:50;;;;;;;3.00;1.58;;;;;;;18.98;79.48;100315.41;5007638;28;20428;-72
2021/08/21 08:50:17;;;;;;;6.40;1.38;;;;;;;19.17;77.93;100327.22;5015441;28;20038;-74
2021/08/21 08:52:44;;;;;;;1.95;1.13;;;;;;;19.23;75.71;100341.03;5005508;28;20052;-70
2021/08/21 08:55:12;;;;;;;2.45;1.40;;;;;;;19.29;74.32;100327.91;5014925;28;20325;-72
2021/08/21 08:57:41;;;;;;;1.83;1.20;;;;;;;19.39;75.34;100340.41;5012057;28;20046;-69
2021/08/21 09:00:11;;;;;;;1.88;1.35;;;;;;;19.57;76.67;100339.66;5005716;28;20089;-71
2021/08/21 09:02:40;;;;;;;4.00;1.85;;;;;;;19.54;72.77;100320.97;5005958;28;20435;-72
2021/08/21 09:05:13;;;;;;;2.13;1.23;;;;;;;19.81;73.36;100335.53;5012310;28;20153;-70
2021/08/21 09:07:53;;;;;;;2.35;1.30;;;;;;;19.83;73.06;100333.53;5007570;28;20045;-70
2021/08/21 09:10:29;;;;;;;2.70;1.27;;;;;;;19.97;73.04;100336.78;5006723;28;20045;-74
2021/08/21 09:13:13;;;;;;;2.28;1.20;;;;;;;20.03;71.73;100345.16;5020046;28;20056;-72
2021/08/21 09:15:41;;;;;;;3.67;1.20;;;;;;;20.04;71.20;100343.31;5013319;28;20132;-71
2021/08/21 09:18:13;;;;;;;2.75;1.45;;;;;;;20.11;72.53;100344.41;5013547;28;20038;-73
2021/08/21 09:20:50;;;;;;;1.55;1.20;;;;;;;20.23;71.53;100336.91;5008051;28;20038;-76
2021/08/21 09:23:29;;;;;;;3.95;1.25;;;;;;;20.25;72.08;100336.78;5008646;28;20045;-72
2021/08/21 09:26:04;;;;;;;2.65;1.60;;;;;;;20.22;71.04;100338.75;5013099;28;20088;-69
2021/08/21 09:28:32;;;;;;;2.65;1.05;;;;;;;20.35;71.54;100337.53;5011541;28;20045;-72
2021/08/21 09:31:15;;;;;;;1.75;1.20;;;;;;;20.45;72.56;100324.78;5014893;28;20081;-71
2021/08/21 09:34:09;;;;;;;4.55;1.08;;;;;;;20.65;70.25;100329.19;5012683;28;20419;-74
2021/08/21 09:36:38;;;;;;;1.10;1.00;;;;;;;20.77;68.68;100325.22;5014069;28;20176;-70
2021/08/21 09:39:10;;;;;;;2.08;1.20;;;;;;;20.85;68.40;100327.16;5009127;28;20048;-72
2021/08/21 09:41:54;;;;;;;1.30;1.00;;;;;;;20.92;68.41;100333.66;4995705;28;20339;-69
2021/08/21 09:44:31;;;;;;;0.98;0.88;;;;;;;21.03;67.12;100316.31;5027093;28;20089;-70
2021/08/21 09:47:29;;;;;;;2.15;1.17;;;;;;;21.11;67.36;100329.06;5012878;28;20056;-71
2021/08/21 09:50:19;;;;;;;1.13;0.90;;;;;;;21.01;67.18;100330.03;5014786;28;20080;-72
2021/08/21 09:52:47;;;;;;;1.75;1.10;;;;;;;20.99;66.55;100337.50;5013596;28;20435;-69
2021/08/21 09:55:19;;;;;;;1.25;1.10;;;;;;;20.84;69.12;100331.75;5029833;28;20046;-70
2021/08/21 09:58:17;;;;;;;1.60;1.10;;;;;;;20.87;69.39;100336.03;5026372;28;20049;-69
2021/08/21 10:00:44;;;;;;;1.75;1.15;;;;;;;20.89;71.65;100336.72;5015295;28;20429;-70
2021/08/21 10:03:11;;;;;;;1.67;1.05;;;;;;;20.86;70.14;100332.44;5014071;28;20419;-70
2021/08/21 10:05:39;;;;;;;1.05;0.95;;;;;;;20.81;68.30;100336.63;5014185;28;20355;-70
2021/08/21 10:08:08;;;;;;;1.88;0.90;;;;;;;20.84;69.13;100326.34;5014921;28;20061;-70
2021/08/21 10:10:49;;;;;;;2.40;1.23;;;;;;;21.06;70.33;100329.56;5014210;28;20053;-70
2021/08/21 10:13:27;;;;;;;2.75;1.27;;;;;;;21.42;70.03;100328.59;5013967;28;20054;-70
2021/08/21 10:15:56;;;;;;;1.65;1.23;;;;;;;21.69;67.86;100330.28;5014036;28;20089;-71
2021/08/21 10:18:24;;;;;;;3.63;1.00;;;;;;;21.80;67.79;100333.75;5015067;28;20053;-71
2021/08/21 10:20:51;;;;;;;1.85;1.08;;;;;;;21.72;66.38;100331.00;5013912;28;20042;-71
2021/08/21 10:23:26;;;;;;;1.77;1.13;;;;;;;21.76;66.47;100329.63;5015074;28;20045;-70
2021/08/21 10:26:11;;;;;;;2.03;1.20;;;;;;;21.87;66.79;100321.19;5030252;28;20321;-70
2021/08/21 10:28:40;;;;;;;1.42;0.98;;;;;;;21.94;64.62;100321.38;5015155;28;20446;-69
2021/08/21 10:31:07;;;;;;;1.42;1.30;;;;;;;22.05;63.79;100315.66;5014253;28;20053;-70
2021/08/21 10:33:54;;;;;;;2.85;1.02;;;;;;;22.13;65.05;100305.81;5014926;28;20423;-69
2021/08/21 10:36:48;;;;;;;2.83;1.45;;;;;;;22.34;61.64;100313.50;5025797;28;20042;-71
2021/08/21 10:39:19;;;;;;;1.88;1.10;;;;;;;22.38;63.23;100302.13;5016908;28;20391;-69
2021/08/21 10:41:48;;;;;;;1.35;1.00;;;;;;;22.29;63.78;100307.72;5018561;28;20037;-71
2021/08/21 10:44:44;;;;;;;2.20;1.10;;;;;;;22.54;63.39;100310.50;5018772;28;20045;-71
2021/08/21 10:47:35;;;;;;;3.00;1.58;;;;;;;22.75;61.62;100310.84;5018729;28;20042;-70
2021/08/21 10:50:14;;;;;;;2.78;1.20;;;;;;;22.70;62.40;100307.78;5015764;28;20145;-71
2021/08/21 10:52:57;;;;;;;1.10;1.00;;;;;;;22.78;62.03;100305.06;5018736;28;20052;-69
2021/08/21 10:55:38;;;;;;;3.65;1.05;;;;;;;22.71;62.24;100298.59;5017375;28;20462;-71
2021/08/21 10:58:21;;;;;;;;;;;;;;;22.84;62.72;100299.97;5018837;28;20088;-71
2021/08/21 11:01:08;;;;;;;2.83;1.02;;;;;;;22.86;61.07;100301.50;5018203;28;20310;-71
2021/08/21 11:03:37;;;;;;;1.58;1.10;;;;;;;22.78;63.76;100307.78;5018394;28;20132;-70
2021/08/21 11:06:09;;;;;;;4.20;1.10;;;;;;;22.70;62.32;100301.53;5018193;28;20048;-71
2021/08/21 11:08:39;;;;;;;1.33;0.95;;;;;;;22.64;62.77;100301.16;5033500;28;20152;-69
2021/08/21 11:13:48;;;;;;;3.53;2.22;;;;;;;22.70;62.89;100299.63;5018275;28;20338;-70
2021/08/21 11:16:17;;;;;;;3.83;1.10;;;;;;;22.89;62.92;100283.97;5018142;28;20053;-69
2021/08/21 11:18:52;;;;;;;2.25;1.20;;;;;;;23.09;61.18;100287.16;5018042;28;20037;-70
2021/08/21 11:21:36;;;;;;;4.15;1.27;;;;;;;23.39;59.75;100283.91;5003332;28;20038;-70
2021/08/21 11:24:22;;;;;;;1.80;1.20;;;;;;;23.40;58.18;100286.44;5016676;28;20470;-70
2021/08/21 11:26:49;;;;;;;1.65;1.20;;;;;;;23.33;58.82;100271.84;5017889;28;20042;-71
2021/08/21 11:29:16;;;;;;;3.22;1.15;;;;;;;23.31;60.03;100273.91;5017890;28;20053;-71
2021/08/21 11:32:00;;;;;;;2.15;1.10;;;;;;;23.22;60.24;100269.44;5033123;28;20045;-69
2021/08/21 11:34:35;;;;;;;2.38;1.30;;;;;;;23.25;59.82;100271.84;5017609;28;20108;-70
2021/08/21 11:37:05;;;;;;;2.15;1.10;;;;;;;23.54;59.76;100267.69;5017651;28;20446;-71